Startpagina
METAR-TAF:

METAR-TAF

Vliegvelden :

Tegucigalpa, Honduras

Luchthaven Toncontín

breedte: 14-03N, lengte: 087-13W, hoogte: 994 m

Actueel weer

Dit bericht is 41 minuten geleden gemaakt, om 06:00 UTC
Wind 2 kt uit het zuidzuidoosten
Temperatuur 14°C
Vochtigheid 94%
Druk 1018 hPa
Zicht 10 km of meer
Weinig wolken op 2600 ft

METAR: MHTG 190600Z 15002KT 9999 FEW026 14/13 Q1018 A3006 NOSIG

Tijdstip: 00:41 (06:41 UTC)

Verwachting

Dit bericht is 2 uur en het 16 minuten geleden gemaakt, om 04:25 UTC
Verwachting geldig van 19 om 06 UTC tot 20 om 06 UTC
Wind 12 kt uit het noorden
Zicht 10 km of meer
Weinig wolken op 2800 ft

TAF: MHTG 190425Z 1906/2006 36012KT 9999 FEW028 TX27/1920Z TN11/1912

Waarnemingen en weersverwachtingen van meer dan 4000 vliegvelden (METAR en TAF).

De beschikbare stations zijn de gele en rode punten op de kaart.

Ga met uw muis naar het station om de naam te zien.

Klik dan om waarnemingen en weersverwachtingen te zien.

kaart wijzigen: klik op de groene knoppen met een zwart kruis om in te zoomen, op de groene knop met een streepje om uit te zoomen of op de groene pijlen voor aangrenzende kaarten.


METAR-TAF: